Time;durP1;ratioP1;P1;durP2;ratioP2;P2;SDS_P1;SDS_P2;PMS_P1;PMS_P2;Temp;Humidity;BMP_temperature;BMP_pressure;BME280_temperature;BME280_humidity;BME280_pressure;Samples;Min_cycle;Max_cycle;Signal;HPM_P1;HPM_P2
2022/06/03 00:00:20;;;;;;;1.67;1.20;;;18.80;90.90;;;;;;6231194;23;20004;-66
2022/06/03 00:03:11;;;;;;;1.90;1.35;;;18.90;91.00;;;;;;6233204;23;20004;-65
2022/06/03 00:05:48;;;;;;;2.25;1.00;;;18.90;91.20;;;;;;6202278;23;20043;-66
2022/06/03 00:08:41;;;;;;;15.27;1.40;;;18.90;91.70;;;;;;6233551;23;20655;-65
2022/06/03 00:11:22;;;;;;;2.15;1.30;;;18.80;92.80;;;;;;6230383;23;20008;-65
2022/06/03 00:14:34;;;;;;;1.42;1.20;;;18.60;93.60;;;;;;6225698;23;20468;-65
2022/06/03 00:17:22;;;;;;;2.70;1.30;;;18.40;94.50;;;;;;6233970;23;20142;-65
2022/06/03 00:19:54;;;;;;;1.48;1.23;;;18.40;94.40;;;;;;6234280;23;20008;-65
2022/06/03 00:22:35;;;;;;;1.17;1.10;;;18.30;94.30;;;;;;6237408;23;20007;-64
2022/06/03 00:25:32;;;;;;;3.50;1.38;;;18.20;94.80;;;;;;6237704;23;20008;-65
2022/06/03 00:27:57;;;;;;;1.40;1.10;;;18.20;95.20;;;;;;6241480;23;20000;-65
2022/06/03 00:30:51;;;;;;;1.40;1.30;;;18.00;96.00;;;;;;6240386;23;20015;-65
2022/06/03 00:33:35;;;;;;;3.20;1.17;;;17.90;96.40;;;;;;6237335;23;20051;-65
2022/06/03 00:36:13;;;;;;;1.42;1.20;;;17.80;96.40;;;;;;6239425;23;20000;-65
2022/06/03 00:39:10;;;;;;;1.40;1.30;;;17.90;96.40;;;;;;6238803;23;20004;-65
2022/06/03 00:41:59;;;;;;;1.40;1.30;;;17.90;96.60;;;;;;6237142;23;20015;-65
2022/06/03 00:44:33;;;;;;;1.88;1.20;;;17.90;96.70;;;;;;6237074;23;20003;-64
2022/06/03 00:47:19;;;;;;;1.73;1.33;;;17.90;96.40;;;;;;6239094;23;20059;-65
2022/06/03 00:50:00;;;;;;;5.10;1.50;;;17.90;96.50;;;;;;6235678;23;20007;-65
2022/06/03 00:52:55;;;;;;;2.67;1.25;;;17.90;96.60;;;;;;6239175;23;20058;-65
2022/06/03 00:55:54;;;;;;;1.73;1.35;;;17.90;97.10;;;;;;6235442;23;20019;-66
2022/06/03 00:58:34;;;;;;;2.25;1.42;;;17.80;97.10;;;;;;6206986;23;20016;-65
2022/06/03 01:01:26;;;;;;;1.30;1.20;;;17.70;97.40;;;;;;6235625;23;20024;-64
2022/06/03 01:04:27;;;;;;;1.45;1.20;;;17.70;98.00;;;;;;6167948;23;20012;-65
2022/06/03 01:07:05;;;;;;;2.60;1.35;;;17.60;98.20;;;;;;6237564;23;20000;-64
2022/06/03 01:09:55;;;;;;;1.40;1.13;;;17.50;98.50;;;;;;6208009;23;20435;-64
2022/06/03 01:12:53;;;;;;;2.42;1.20;;;17.40;99.20;;;;;;6234762;23;20008;-64
2022/06/03 01:15:28;;;;;;;2.95;1.65;;;17.20;99.50;;;;;;6230794;23;20007;-65
2022/06/03 01:18:02;;;;;;;4.00;1.38;;;17.00;99.50;;;;;;6237523;23;20502;-64
2022/06/03 01:20:45;;;;;;;12.35;1.60;;;16.90;99.80;;;;;;6237922;23;20360;-65
2022/06/03 01:23:38;;;;;;;9.50;1.80;;;17.00;99.90;;;;;;6236475;23;20004;-63
2022/06/03 01:26:26;;;;;;;2.03;1.33;;;17.00;99.90;;;;;;6237190;23;20500;-65
2022/06/03 01:29:10;;;;;;;1.73;1.55;;;17.00;99.90;;;;;;6234339;23;20000;-64
2022/06/03 01:31:57;;;;;;;1.55;1.45;;;17.00;99.80;;;;;;6233120;23;20047;-64
2022/06/03 01:34:39;;;;;;;4.88;1.48;;;16.90;99.90;;;;;;6235685;23;20365;-65
2022/06/03 01:37:07;;;;;;;1.55;1.40;;;16.90;99.90;;;;;;6240903;23;20035;-65
2022/06/03 01:39:45;;;;;;;2.53;1.40;;;16.90;99.90;;;;;;6231328;23;20435;-65
2022/06/03 01:42:36;;;;;;;1.73;1.55;;;16.80;99.90;;;;;;6236051;23;20004;-65
2022/06/03 01:45:17;;;;;;;1.85;1.60;;;16.80;99.90;;;;;;6233813;23;20011;-65
2022/06/03 01:48:18;;;;;;;3.08;1.40;;;16.70;99.90;;;;;;6233132;23;20456;-65
2022/06/03 01:51:20;;;;;;;1.27;1.17;;;16.70;99.90;;;;;;6233135;23;20035;-65
2022/06/03 01:54:20;;;;;;;;;;;16.70;99.90;;;;;;6236861;23;20023;-65
2022/06/03 01:57:04;;;;;;;1.50;1.40;;;16.70;99.90;;;;;;6234747;23;19942;-65
2022/06/03 01:59:44;;;;;;;2.53;1.60;;;16.70;99.90;;;;;;6230470;23;20509;-65
2022/06/03 02:02:16;;;;;;;1.55;1.45;;;16.70;99.90;;;;;;6230819;23;20099;-65
2022/06/03 02:05:00;;;;;;;4.40;1.30;;;16.70;99.90;;;;;;6232434;23;20232;-64
2022/06/03 02:08:04;;;;;;;2.60;1.60;;;16.60;99.90;;;;;;6227167;23;20039;-65
2022/06/03 02:10:48;;;;;;;2.30;1.70;;;16.50;99.90;;;;;;6231330;23;20089;-65
2022/06/03 02:13:29;;;;;;;2.15;1.38;;;16.40;99.90;;;;;;6228784;23;20019;-64
2022/06/03 02:16:33;;;;;;;1.60;1.50;;;16.50;99.90;;;;;;6230745;23;20100;-65
2022/06/03 02:19:33;;;;;;;1.67;1.58;;;16.50;99.90;;;;;;6232484;23;20288;-65
2022/06/03 02:22:11;;;;;;;4.20;1.70;;;16.50;99.90;;;;;;6233068;23;20008;-65
2022/06/03 02:24:40;;;;;;;1.40;1.30;;;16.50;99.90;;;;;;6232247;23;20008;-65
2022/06/03 02:27:21;;;;;;;3.22;1.65;;;16.50;99.90;;;;;;6229561;23;20004;-65
2022/06/03 02:33:04;;;;;;;1.60;1.50;;;16.60;99.90;;;;;;6231308;23;20116;-65
2022/06/03 02:35:43;;;;;;;3.17;1.60;;;16.60;99.90;;;;;;6232613;23;20000;-65
2022/06/03 02:38:32;;;;;;;5.13;1.63;;;16.50;99.90;;;;;;6228289;23;20232;-65
2022/06/03 02:41:13;;;;;;;4.45;1.80;;;16.60;99.90;;;;;;6233268;23;19996;-65
2022/06/03 02:43:57;;;;;;;4.22;1.50;;;16.50;99.90;;;;;;6228175;23;20019;-65
2022/06/03 02:46:58;;;;;;;1.50;1.40;;;16.40;99.90;;;;;;6231536;23;20086;-65
2022/06/03 02:49:39;;;;;;;2.47;1.30;;;16.10;99.90;;;;;;6202496;23;20357;-65
2022/06/03 02:52:39;;;;;;;1.50;1.40;;;15.90;99.90;;;;;;6231960;23;20146;-65
2022/06/03 02:55:39;;;;;;;1.60;1.50;;;15.90;99.90;;;;;;6152299;23;20051;-65
2022/06/03 02:58:48;;;;;;;2.00;1.63;;;15.80;99.90;;;;;;6227651;23;20083;-65
2022/06/03 03:01:51;;;;;;;1.98;1.55;;;15.90;99.90;;;;;;6109525;23;20091;-65
2022/06/03 03:04:40;;;;;;;1.50;1.40;;;15.80;99.90;;;;;;6230795;23;20287;-65
2022/06/03 03:07:23;;;;;;;1.80;1.70;;;16.00;99.90;;;;;;6230904;23;20009;-65
2022/06/03 03:10:27;;;;;;;3.33;1.50;;;16.10;99.90;;;;;;6229854;23;19996;-65
2022/06/03 03:13:24;;;;;;;3.45;1.88;;;16.10;99.90;;;;;;6232278;23;20520;-66
2022/06/03 03:15:59;;;;;;;2.17;1.48;;;16.20;99.90;;;;;;6229613;23;20008;-65
2022/06/03 03:18:43;;;;;;;2.88;1.92;;;16.10;99.90;;;;;;6230209;23;20012;-65
2022/06/03 03:21:36;;;;;;;4.90;1.65;;;16.10;99.90;;;;;;6229847;23;20013;-65
2022/06/03 03:24:18;;;;;;;1.90;1.70;;;16.10;99.90;;;;;;6227471;23;20329;-65
2022/06/03 03:27:14;;;;;;;2.95;1.77;;;16.10;99.90;;;;;;6230662;23;20111;-65
2022/06/03 03:29:42;;;;;;;2.47;1.73;;;16.00;99.90;;;;;;6228858;23;20632;-65
2022/06/03 03:32:17;;;;;;;2.78;1.42;;;16.00;99.90;;;;;;6232366;23;20005;-65
2022/06/03 03:35:17;;;;;;;2.08;1.70;;;15.90;99.90;;;;;;6235151;23;20000;-65
2022/06/03 03:38:08;;;;;;;1.67;1.58;;;15.80;99.90;;;;;;6234978;23;20010;-65
2022/06/03 03:41:21;;;;;;;1.42;1.33;;;15.80;99.90;;;;;;6229532;23;20004;-65
2022/06/03 03:44:05;;;;;;;2.00;1.70;;;15.90;99.90;;;;;;6082213;23;20003;-65
2022/06/03 03:46:49;;;;;;;1.83;1.65;;;15.90;99.90;;;;;;6081896;23;20124;-64
2022/06/03 03:49:45;;;;;;;2.30;1.88;;;16.00;99.90;;;;;;6199972;23;20012;-65
2022/06/03 03:52:51;;;;;;;3.28;1.73;;;16.00;99.90;;;;;;6233746;23;20008;-66
2022/06/03 03:55:47;;;;;;;2.40;1.90;;;16.10;99.90;;;;;;6233878;23;20240;-65
2022/06/03 03:58:43;;;;;;;3.67;2.45;;;16.20;99.90;;;;;;6232220;23;20540;-65
2022/06/03 04:01:12;;;;;;;2.00;1.80;;;16.20;99.90;;;;;;6234969;23;20000;-65
2022/06/03 04:03:46;;;;;;;4.68;2.00;;;16.30;99.90;;;;;;6233233;23;20035;-65
2022/06/03 04:06:39;;;;;;;4.15;2.15;;;16.40;99.90;;;;;;6235552;23;20046;-65
2022/06/03 04:09:24;;;;;;;9.88;2.35;;;16.50;99.90;;;;;;6236915;23;20051;-65
2022/06/03 04:12:28;;;;;;;4.55;2.28;;;16.60;99.90;;;;;;6231708;23;20004;-65
2022/06/03 04:15:06;;;;;;;5.15;1.95;;;16.70;99.90;;;;;;6206729;23;20047;-65
2022/06/03 04:17:50;;;;;;;2.30;1.90;;;16.80;99.90;;;;;;6232019;23;20031;-66
2022/06/03 04:20:46;;;;;;;2.30;1.90;;;16.80;99.90;;;;;;6236009;23;20007;-65
2022/06/03 04:23:14;;;;;;;6.20;2.47;;;16.70;99.90;;;;;;6233357;23;20008;-65
2022/06/03 04:26:09;;;;;;;2.53;2.33;;;16.80;99.90;;;;;;6236709;23;20004;-66
2022/06/03 04:29:35;;;;;;;4.57;2.47;;;16.90;99.90;;;;;;6235295;23;20425;-65
2022/06/03 04:32:04;;;;;;;4.13;2.65;;;17.00;99.90;;;;;;6184229;23;20012;-65
2022/06/03 04:34:48;;;;;;;3.25;2.78;;;17.20;99.90;;;;;;6232396;23;20077;-65
2022/06/03 04:37:32;;;;;;;5.15;2.75;;;17.40;99.90;;;;;;6233297;23;20000;-65
2022/06/03 04:40:26;;;;;;;3.30;2.50;;;17.50;99.90;;;;;;6235649;23;20015;-65
2022/06/03 04:43:16;;;;;;;4.57;2.63;;;17.70;99.90;;;;;;6234893;23;20011;-65
2022/06/03 04:46:00;;;;;;;2.72;2.35;;;17.80;99.90;;;;;;6231425;23;20046;-65
2022/06/03 04:49:03;;;;;;;2.38;2.17;;;18.00;99.90;;;;;;6233047;23;20498;-65
2022/06/03 04:52:00;;;;;;;2.50;2.10;;;18.10;99.90;;;;;;6231997;23;20011;-66
2022/06/03 04:55:07;;;;;;;3.75;2.22;;;18.30;99.90;;;;;;6219520;23;20008;-63
2022/06/03 04:58:22;;;;;;;2.90;2.58;;;18.40;99.90;;;;;;6155902;23;20095;-64
2022/06/03 05:00:51;;;;;;;2.40;2.20;;;18.50;99.90;;;;;;6230769;23;20004;-63
2022/06/03 05:03:54;;;;;;;4.30;1.90;;;18.70;99.90;;;;;;6234284;23;20019;-63
2022/06/03 05:06:37;;;;;;;2.42;2.20;;;18.80;99.90;;;;;;6230191;23;20000;-65
2022/06/03 05:09:21;;;;;;;13.32;2.42;;;18.90;99.90;;;;;;6233032;23;20071;-65
2022/06/03 05:12:21;;;;;;;3.83;2.22;;;19.00;99.90;;;;;;6231855;23;20008;-65
2022/06/03 05:15:02;;;;;;;2.45;1.80;;;19.20;99.90;;;;;;6234107;23;20031;-64
2022/06/03 05:17:37;;;;;;;3.42;2.03;;;19.20;99.80;;;;;;6231614;23;20093;-65
2022/06/03 05:20:05;;;;;;;2.30;2.00;;;19.30;99.90;;;;;;6233790;23;20011;-65
2022/06/03 05:23:06;;;;;;;2.70;1.95;;;19.30;99.70;;;;;;6220350;23;20004;-65
2022/06/03 05:26:09;;;;;;;3.38;2.15;;;19.40;98.60;;;;;;6230953;23;20314;-65
2022/06/03 05:28:38;;;;;;;6.75;2.30;;;19.40;98.80;;;;;;6231623;23;20008;-65
2022/06/03 05:31:07;;;;;;;1.65;1.55;;;19.50;99.20;;;;;;6232922;23;20000;-65
2022/06/03 05:34:04;;;;;;;3.92;2.80;;;19.60;98.80;;;;;;6235361;23;20040;-65
2022/06/03 05:37:07;;;;;;;2.75;1.92;;;19.70;99.20;;;;;;6232945;23;20086;-65
2022/06/03 05:39:33;;;;;;;2.28;1.85;;;19.80;98.30;;;;;;6234963;23;20011;-66
2022/06/03 05:42:28;;;;;;;1.92;1.77;;;19.80;98.50;;;;;;6233464;23;19996;-65
2022/06/03 05:45:28;;;;;;;2.13;1.80;;;19.90;98.00;;;;;;6232260;23;20006;-66
2022/06/03 05:48:02;;;;;;;1.83;1.70;;;20.00;97.50;;;;;;6235123;23;20004;-66
2022/06/03 05:50:38;;;;;;;2.40;1.90;;;20.10;97.60;;;;;;6234791;23;20027;-65
2022/06/03 05:53:44;;;;;;;2.15;1.95;;;20.20;97.40;;;;;;6234728;23;20024;-66
2022/06/03 05:56:35;;;;;;;2.75;1.90;;;20.20;97.00;;;;;;6203203;23;20093;-66
2022/06/03 05:59:57;;;;;;;2.83;1.92;;;20.30;97.50;;;;;;6234118;23;20004;-66
2022/06/03 06:02:44;;;;;;;6.40;1.92;;;20.30;96.70;;;;;;6232187;23;20003;-65
2022/06/03 06:05:29;;;;;;;2.05;1.92;;;20.40;96.90;;;;;;6234779;23;20012;-65
2022/06/03 06:07:57;;;;;;;4.78;2.20;;;20.50;96.80;;;;;;6231694;23;20095;-65
2022/06/03 06:10:53;;;;;;;1.80;1.70;;;20.60;96.40;;;;;;6234332;23;20039;-66
2022/06/03 06:13:50;;;;;;;1.98;1.88;;;20.70;96.00;;;;;;6234903;23;20016;-65
2022/06/03 06:16:37;;;;;;;4.57;1.88;;;20.60;96.30;;;;;;6231619;23;20090;-65
2022/06/03 06:19:09;;;;;;;3.03;1.88;;;20.60;96.30;;;;;;6235958;23;20004;-65
2022/06/03 06:22:03;;;;;;;3.60;1.85;;;20.60;96.10;;;;;;6235139;23;20381;-66
2022/06/03 06:24:29;;;;;;;4.05;1.92;;;20.70;95.90;;;;;;6236147;23;20000;-65
2022/06/03 06:27:19;;;;;;;3.40;1.80;;;20.90;95.80;;;;;;6233959;23;20497;-65
2022/06/03 06:30:04;;;;;;;2.38;1.77;;;20.90;95.50;;;;;;6236129;23;20000;-66
2022/06/03 06:33:02;;;;;;;2.17;1.52;;;21.00;95.30;;;;;;6234939;23;20469;-66
2022/06/03 06:35:36;;;;;;;2.20;2.00;;;21.10;95.60;;;;;;6234374;23;20000;-65
2022/06/03 06:38:13;;;;;;;2.53;2.20;;;21.10;94.80;;;;;;6232992;23;20004;-66
2022/06/03 06:40:47;;;;;;;3.80;1.77;;;21.10;95.00;;;;;;6232874;23;20071;-66
2022/06/03 06:43:30;;;;;;;2.13;1.75;;;21.10;94.60;;;;;;6233353;23;20291;-66
2022/06/03 06:46:18;;;;;;;5.65;2.15;;;21.20;95.00;;;;;;6233718;23;20575;-65
2022/06/03 06:48:58;;;;;;;2.33;2.13;;;21.30;95.10;;;;;;6231586;23;20058;-66
2022/06/03 06:51:45;;;;;;;4.65;1.70;;;21.40;95.60;;;;;;6231878;23;20004;-66
2022/06/03 06:54:36;;;;;;;1.70;1.60;;;21.50;94.60;;;;;;6230113;23;20091;-66
2022/06/03 06:57:09;;;;;;;4.05;1.73;;;21.60;94.60;;;;;;6229192;23;20057;-65
2022/06/03 06:59:43;;;;;;;2.53;1.85;;;21.60;94.50;;;;;;6234873;23;20004;-66
2022/06/03 07:02:36;;;;;;;1.83;1.60;;;21.70;94.60;;;;;;6231315;23;19997;-66
2022/06/03 07:05:30;;;;;;;3.28;1.90;;;21.80;92.90;;;;;;6229041;23;20000;-65
2022/06/03 07:08:10;;;;;;;3.63;1.85;;;21.90;93.70;;;;;;6233418;23;20163;-66
2022/06/03 07:10:51;;;;;;;2.17;1.90;;;22.00;93.30;;;;;;6233031;23;20050;-66
2022/06/03 07:13:23;;;;;;;2.75;1.80;;;22.00;92.80;;;;;;6228863;23;20020;-66
2022/06/03 07:19:47;;;;;;;1.63;1.52;;;22.00;93.30;;;;;;6231258;23;20008;-65
2022/06/03 07:22:25;;;;;;;2.15;1.80;;;22.20;93.20;;;;;;6221116;23;20018;-66
2022/06/03 07:25:19;;;;;;;2.60;2.10;;;22.40;92.60;;;;;;6228964;23;20008;-66
2022/06/03 07:28:06;;;;;;;2.17;1.70;;;22.40;92.80;;;;;;6229700;23;20043;-65
2022/06/03 07:30:41;;;;;;;2.42;1.70;;;22.50;92.10;;;;;;6228884;23;20008;-66
2022/06/03 07:33:21;;;;;;;2.38;1.80;;;22.40;92.50;;;;;;6227901;23;20024;-66
2022/06/03 07:35:54;;;;;;;3.08;1.70;;;22.50;92.00;;;;;;6231649;23;20000;-66
2022/06/03 07:38:36;;;;;;;4.30;1.85;;;22.50;93.70;;;;;;6230555;23;20495;-66
2022/06/03 07:41:06;;;;;;;2.42;1.50;;;22.50;92.10;;;;;;6230901;23;20005;-66
2022/06/03 07:43:39;;;;;;;6.95;1.80;;;22.60;93.40;;;;;;6234058;23;20015;-66
2022/06/03 07:46:13;;;;;;;3.92;2.30;;;22.80;92.80;;;;;;6228305;23;20008;-66
2022/06/03 07:48:39;;;;;;;2.92;1.90;;;22.80;92.70;;;;;;6223937;23;20000;-66
2022/06/03 07:51:09;;;;;;;2.25;1.70;;;22.90;93.40;;;;;;6230176;23;20012;-66
2022/06/03 07:53:44;;;;;;;1.92;1.58;;;23.10;92.10;;;;;;6230144;23;20016;-66
2022/06/03 07:56:10;;;;;;;1.67;1.50;;;23.20;92.50;;;;;;6234758;23;20360;-65
2022/06/03 07:58:39;;;;;;;1.90;1.63;;;23.20;91.30;;;;;;6235963;23;20011;-65
2022/06/03 08:01:06;;;;;;;3.45;1.63;;;23.10;90.90;;;;;;6234009;23;20414;-65
2022/06/03 08:03:37;;;;;;;3.30;1.88;;;23.00;91.80;;;;;;6233598;23;20070;-65
2022/06/03 08:06:06;;;;;;;3.05;1.55;;;23.00;90.70;;;;;;6225759;23;20456;-65
2022/06/03 08:11:27;;;;;;;2.45;1.85;;;23.00;92.00;;;;;;6224548;23;20086;-66
2022/06/03 08:13:55;;;;;;;2.85;1.50;;;23.20;91.20;;;;;;6229965;23;20011;-65
2022/06/03 08:16:41;;;;;;;1.90;1.60;;;23.30;92.20;;;;;;6230787;23;20036;-65
2022/06/03 08:19:10;;;;;;;2.55;1.50;;;23.50;92.60;;;;;;6227520;23;20012;-66
2022/06/03 08:21:46;;;;;;;1.85;1.38;;;23.60;91.80;;;;;;6231629;23;20012;-66
2022/06/03 08:24:15;;;;;;;1.98;1.67;;;23.70;90.00;;;;;;6233520;23;20035;-66
2022/06/03 08:26:44;;;;;;;3.38;1.50;;;23.70;89.90;;;;;;6196097;23;20627;-66
2022/06/03 08:29:34;;;;;;;1.63;1.52;;;23.70;91.10;;;;;;6229201;23;20008;-66
2022/06/03 08:32:01;;;;;;;2.20;1.50;;;23.80;90.80;;;;;;6232121;23;20475;-66
2022/06/03 08:34:34;;;;;;;3.05;1.50;;;24.00;90.30;;;;;;6230124;23;20020;-66
2022/06/03 08:37:00;;;;;;;3.10;1.55;;;24.10;90.60;;;;;;6233689;23;19996;-66
2022/06/03 08:39:31;;;;;;;3.40;1.80;;;24.20;89.30;;;;;;6233351;23;20517;-66
2022/06/03 08:42:13;;;;;;;1.50;1.40;;;24.10;89.80;;;;;;6234795;23;20531;-66
2022/06/03 08:44:45;;;;;;;;;;;24.20;89.10;;;;;;6233744;23;20011;-66
2022/06/03 08:47:54;;;;;;;1.52;1.42;;;24.10;88.50;;;;;;6236596;23;19939;-66
2022/06/03 08:50:28;;;;;;;1.92;1.27;;;24.20;84.60;;;;;;6231060;23;20004;-66
2022/06/03 08:53:03;;;;;;;3.15;1.40;;;24.30;84.50;;;;;;6235946;23;20031;-66
2022/06/03 08:55:40;;;;;;;1.88;1.42;;;24.30;86.80;;;;;;6236378;23;20004;-66
2022/06/03 08:58:37;;;;;;;1.67;1.58;;;24.40;83.70;;;;;;6235746;23;20008;-66
2022/06/03 09:01:41;;;;;;;1.52;1.33;;;24.40;82.40;;;;;;6234432;23;20000;-66
2022/06/03 09:04:22;;;;;;;2.15;1.63;;;24.30;81.70;;;;;;6223166;23;20046;-67
2022/06/03 09:06:57;;;;;;;2.35;1.50;;;24.30;85.50;;;;;;6226023;23;20126;-65
2022/06/03 09:09:41;;;;;;;1.55;1.45;;;24.40;85.60;;;;;;6197008;23;20769;-66
2022/06/03 09:12:26;;;;;;;1.17;1.05;;;24.40;85.10;;;;;;6232278;23;20012;-66
2022/06/03 09:14:52;;;;;;;2.33;1.20;;;24.40;82.00;;;;;;6232562;23;20559;-66
2022/06/03 09:17:37;;;;;;;1.40;1.30;;;24.40;82.20;;;;;;6231619;23;20024;-66
2022/06/03 09:20:31;;;;;;;2.00;1.30;;;24.60;84.20;;;;;;6229814;23;20054;-66
2022/06/03 09:23:09;;;;;;;1.38;1.27;;;24.60;80.00;;;;;;6232877;23;20000;-66
2022/06/03 09:25:42;;;;;;;1.55;1.30;;;24.50;78.30;;;;;;6234859;23;20007;-66
2022/06/03 09:28:14;;;;;;;2.25;1.35;;;24.50;78.70;;;;;;6228791;23;20074;-66
2022/06/03 09:30:40;;;;;;;1.55;1.20;;;24.50;78.10;;;;;;6230276;23;20000;-66
2022/06/03 09:33:11;;;;;;;1.17;1.10;;;24.60;78.80;;;;;;6230254;23;20047;-65
2022/06/03 09:35:40;;;;;;;1.20;1.10;;;24.60;76.00;;;;;;6234949;23;20004;-66
2022/06/03 09:38:07;;;;;;;1.33;1.23;;;24.70;79.60;;;;;;6233231;23;19997;-66
2022/06/03 09:40:36;;;;;;;1.33;1.05;;;24.80;78.30;;;;;;6235408;23;20004;-66
2022/06/03 09:43:05;;;;;;;1.40;1.20;;;24.90;80.00;;;;;;6235440;23;20004;-66
2022/06/03 09:45:31;;;;;;;3.17;1.20;;;25.00;81.20;;;;;;6234780;23;20699;-66
2022/06/03 09:47:59;;;;;;;5.55;1.15;;;25.10;78.00;;;;;;6235454;23;20079;-66
2022/06/03 09:50:25;;;;;;;1.55;1.40;;;25.10;77.20;;;;;;6209510;23;20058;-66
2022/06/03 09:53:22;;;;;;;1.48;1.23;;;25.20;75.70;;;;;;6237348;23;20683;-66
2022/06/03 09:55:57;;;;;;;1.65;1.33;;;25.30;78.70;;;;;;6215872;23;20020;-66
2022/06/03 09:58:28;;;;;;;2.30;1.10;;;25.40;78.30;;;;;;6234035;23;20004;-66
2022/06/03 10:00:56;;;;;;;1.20;1.10;;;25.40;75.10;;;;;;6235129;23;20039;-66
2022/06/03 10:03:24;;;;;;;2.17;1.38;;;25.40;74.90;;;;;;6237368;23;20007;-66
2022/06/03 10:05:52;;;;;;;2.90;1.35;;;25.30;73.00;;;;;;6235671;22;20377;-65
2022/06/03 10:08:23;;;;;;;1.73;1.00;;;25.30;74.70;;;;;;6234525;23;20008;-66
2022/06/03 10:13:38;;;;;;;1.88;1.15;;;25.30;76.10;;;;;;6233896;23;20350;-66
2022/06/03 10:16:07;;;;;;;1.58;1.30;;;25.50;76.40;;;;;;6235799;23;20083;-66
2022/06/03 10:18:49;;;;;;;1.52;1.13;;;25.50;76.70;;;;;;6236420;23;20658;-66
2022/06/03 10:21:14;;;;;;;1.20;1.10;;;25.70;76.90;;;;;;6236940;23;20007;-66
2022/06/03 10:23:46;;;;;;;1.33;1.20;;;25.60;73.70;;;;;;6222554;23;20000;-67
2022/06/03 10:26:18;;;;;;;1.67;1.10;;;25.60;75.00;;;;;;6237211;23;20007;-65
2022/06/03 10:28:49;;;;;;;1.17;1.00;;;25.60;70.60;;;;;;6235039;23;20004;-66
2022/06/03 10:31:18;;;;;;;0.82;0.82;;;25.60;70.20;;;;;;6234496;23;20355;-66
2022/06/03 10:33:54;;;;;;;1.55;1.10;;;25.60;72.00;;;;;;6236140;23;20008;-66
2022/06/03 10:36:24;;;;;;;1.38;1.00;;;25.70;71.20;;;;;;6236520;23;20004;-66
2022/06/03 10:38:51;;;;;;;1.08;1.08;;;25.90;74.00;;;;;;6236287;23;20000;-66
2022/06/03 10:41:17;;;;;;;1.23;0.93;;;26.00;71.20;;;;;;6233791;23;20008;-66
2022/06/03 10:43:43;;;;;;;1.20;0.88;;;26.00;67.40;;;;;;6237567;23;20015;-66
2022/06/03 10:46:19;;;;;;;1.88;0.77;;;25.90;68.00;;;;;;6236018;23;20008;-66
2022/06/03 10:48:46;;;;;;;1.67;0.95;;;25.90;67.00;;;;;;6236647;23;20334;-66
2022/06/03 10:51:15;;;;;;;1.10;1.00;;;26.00;66.10;;;;;;6234439;23;20031;-66
2022/06/03 11:02:03;;;;;;;0.93;0.70;;;25.90;66.60;;;;;;6237507;23;20106;-66
2022/06/03 11:04:37;;;;;;;1.27;1.00;;;26.00;68.80;;;;;;6235630;23;20075;-67
2022/06/03 11:07:26;;;;;;;1.60;1.13;;;26.10;66.70;;;;;;6235940;23;20000;-66
2022/06/03 11:09:59;;;;;;;1.10;1.00;;;26.10;65.00;;;;;;6233284;23;20004;-66
2022/06/03 11:12:28;;;;;;;1.05;0.90;;;26.20;67.90;;;;;;6236368;23;20441;-66
2022/06/03 11:14:54;;;;;;;0.95;0.95;;;26.30;66.40;;;;;;6235585;23;20027;-66
2022/06/03 11:17:36;;;;;;;1.08;1.00;;;26.40;68.40;;;;;;6235758;23;20358;-66
2022/06/03 11:20:16;;;;;;;1.20;1.10;;;26.50;69.00;;;;;;6233676;23;20338;-66
2022/06/03 11:22:45;;;;;;;4.68;1.10;;;26.60;66.60;;;;;;6237133;23;20111;-65
2022/06/03 11:25:27;;;;;;;1.50;1.10;;;26.60;68.30;;;;;;6236525;23;20087;-66
2022/06/03 11:28:19;;;;;;;2.67;0.88;;;26.70;65.60;;;;;;6234992;23;20095;-66
2022/06/03 11:30:51;;;;;;;;;;;26.70;64.30;;;;;;6237241;23;20062;-66
2022/06/03 11:33:31;;;;;;;1.85;0.93;;;26.60;63.60;;;;;;6232802;23;19919;-66
2022/06/03 11:36:09;;;;;;;9.95;1.20;;;26.60;64.60;;;;;;6238100;23;20005;-66
2022/06/03 11:38:49;;;;;;;1.20;1.10;;;26.70;66.80;;;;;;6234498;23;20008;-66
2022/06/03 11:41:25;;;;;;;1.63;1.02;;;26.80;66.60;;;;;;6234330;23;20003;-66
2022/06/03 11:43:58;;;;;;;1.38;0.90;;;26.80;63.70;;;;;;6236485;23;19996;-66
2022/06/03 11:46:31;;;;;;;1.35;1.00;;;26.70;63.70;;;;;;6236149;23;20000;-66
2022/06/03 11:48:57;;;;;;;1.50;1.00;;;26.80;64.70;;;;;;6236008;23;20024;-66
2022/06/03 11:51:25;;;;;;;2.75;1.33;;;26.80;66.50;;;;;;6233312;23;20008;-66
2022/06/03 11:53:52;;;;;;;2.00;1.20;;;27.00;65.70;;;;;;6232525;23;20016;-68
2022/06/03 11:56:22;;;;;;;1.35;0.90;;;27.00;63.00;;;;;;6229426;23;20385;-64
2022/06/03 11:58:53;;;;;;;4.30;1.10;;;26.90;63.40;;;;;;6229562;23;19996;-66
2022/06/03 12:01:44;;;;;;;1.33;1.00;;;26.90;63.20;;;;;;6229078;23;20116;-66
2022/06/03 12:04:40;;;;;;;0.88;0.82;;;26.80;62.40;;;;;;6211682;23;20086;-66
2022/06/03 12:07:24;;;;;;;0.98;0.93;;;26.80;65.20;;;;;;6228859;23;20036;-66
2022/06/03 12:10:15;;;;;;;1.23;1.00;;;26.80;62.20;;;;;;6226143;23;20086;-65
2022/06/03 12:15:54;;;;;;;5.50;1.13;;;26.80;65.40;;;;;;6231327;23;20023;-68
2022/06/03 12:18:32;;;;;;;1.17;1.00;;;26.90;61.80;;;;;;6231561;23;20020;-67
2022/06/03 12:21:14;;;;;;;0.73;0.60;;;26.80;62.00;;;;;;6232392;23;20692;-65
2022/06/03 12:23:41;;;;;;;1.67;0.95;;;26.90;62.30;;;;;;6235282;23;20087;-66
2022/06/03 12:26:18;;;;;;;0.93;0.90;;;27.10;62.40;;;;;;6234461;23;20079;-66
2022/06/03 12:28:47;;;;;;;1.08;0.90;;;27.20;62.10;;;;;;6236657;23;20000;-66
2022/06/03 12:31:19;;;;;;;1.95;0.95;;;27.20;61.60;;;;;;6233718;23;20007;-66
2022/06/03 12:34:09;;;;;;;1.23;0.70;;;27.30;61.90;;;;;;6230956;23;20441;-66
2022/06/03 12:36:53;;;;;;;1.33;0.88;;;27.40;60.90;;;;;;6234954;23;20011;-66
2022/06/03 12:39:19;;;;;;;1.60;0.80;;;27.40;60.90;;;;;;6236709;23;20011;-65
2022/06/03 12:41:44;;;;;;;0.73;0.73;;;27.30;63.60;;;;;;6229204;23;20008;-65
2022/06/03 12:44:43;;;;;;;2.90;0.90;;;27.40;63.00;;;;;;6234830;23;20023;-64
2022/06/03 12:47:18;;;;;;;1.75;1.05;;;27.40;59.70;;;;;;6203954;23;20016;-65
2022/06/03 12:49:43;;;;;;;1.77;0.88;;;27.30;60.20;;;;;;6233977;23;20059;-65
2022/06/03 12:52:20;;;;;;;1.95;1.00;;;27.20;62.30;;;;;;6230342;23;20084;-66
2022/06/03 12:55:04;;;;;;;4.68;0.80;;;27.30;60.20;;;;;;6235962;23;20019;-66
2022/06/03 12:57:35;;;;;;;2.03;1.10;;;27.30;60.50;;;;;;6226641;23;20004;-66
2022/06/03 13:00:32;;;;;;;1.80;0.88;;;27.50;59.90;;;;;;6229779;23;20004;-66
2022/06/03 13:03:02;;;;;;;0.80;0.80;;;27.60;59.10;;;;;;6219689;23;20035;-66
2022/06/03 13:05:36;;;;;;;2.20;0.95;;;27.60;58.30;;;;;;6231749;23;20449;-66
2022/06/03 13:08:06;;;;;;;2.30;0.90;;;27.50;57.00;;;;;;6234886;23;20517;-64
2022/06/03 13:10:52;;;;;;;4.35;1.10;;;27.30;55.50;;;;;;6201904;23;20671;-65
2022/06/03 13:13:23;;;;;;;0.93;0.82;;;27.10;58.20;;;;;;6210887;23;20028;-66
2022/06/03 13:15:50;;;;;;;1.30;1.20;;;27.20;58.40;;;;;;6225296;23;20084;-66
2022/06/03 13:18:34;;;;;;;1.48;1.05;;;27.30;58.30;;;;;;6224987;23;20576;-65
2022/06/03 13:21:00;;;;;;;3.03;1.00;;;27.40;56.30;;;;;;6228821;23;20001;-65
2022/06/03 13:23:33;;;;;;;2.92;0.90;;;27.30;55.80;;;;;;6229012;23;20011;-66
2022/06/03 13:26:20;;;;;;;2.03;0.90;;;27.30;55.20;;;;;;6226382;23;20029;-66
2022/06/03 13:28:50;;;;;;;3.17;1.05;;;27.20;55.50;;;;;;6229332;23;20054;-66
2022/06/03 13:31:20;;;;;;;2.65;0.90;;;27.20;57.80;;;;;;6232319;23;20046;-67
2022/06/03 13:34:11;;;;;;;4.80;0.98;;;27.30;55.90;;;;;;6232847;23;20402;-66
2022/06/03 13:36:53;;;;;;;1.33;0.80;;;27.30;57.00;;;;;;6230830;23;20463;-66
2022/06/03 13:39:24;;;;;;;1.05;0.70;;;27.30;55.80;;;;;;6203389;23;20024;-66
2022/06/03 13:45:01;;;;;;;2.05;0.90;;;27.10;56.10;;;;;;6230523;23;20053;-66
2022/06/03 13:47:28;;;;;;;1.33;0.80;;;27.20;57.10;;;;;;6204322;23;20471;-66
2022/06/03 13:50:13;;;;;;;2.67;0.98;;;27.20;56.50;;;;;;6231365;23;20008;-66
2022/06/03 13:53:02;;;;;;;3.80;1.05;;;27.30;57.30;;;;;;6229244;23;20004;-66
2022/06/03 13:55:37;;;;;;;1.27;1.10;;;27.30;56.70;;;;;;6227702;23;20036;-66
2022/06/03 13:58:12;;;;;;;1.55;0.82;;;27.40;59.10;;;;;;6230430;22;20004;-66
2022/06/03 14:00:53;;;;;;;4.07;1.30;;;27.40;56.10;;;;;;6231806;23;20000;-66
2022/06/03 14:03:21;;;;;;;4.32;0.93;;;27.50;57.50;;;;;;6231150;23;20036;-67
2022/06/03 14:05:57;;;;;;;10.93;1.20;;;27.50;56.90;;;;;;6227067;22;20000;-67
2022/06/03 14:08:40;;;;;;;4.57;1.60;;;27.70;57.10;;;;;;6224982;22;20000;-67
2022/06/03 14:11:24;;;;;;;2.78;0.90;;;27.80;56.90;;;;;;6228801;23;20005;-66
2022/06/03 14:20:37;;;;;;;9.32;1.55;;;27.70;55.80;;;;;;6200215;23;20051;-70
2022/06/03 14:23:30;;;;;;;3.10;1.00;;;27.80;58.90;;;;;;6230521;23;20012;-67
2022/06/03 14:26:08;;;;;;;4.00;1.30;;;27.90;57.70;;;;;;6227540;23;20800;-66
2022/06/03 14:28:59;;;;;;;3.33;1.20;;;27.80;56.80;;;;;;6231809;23;20007;-75
2022/06/03 14:31:47;;;;;;;1.50;1.00;;;27.70;55.60;;;;;;6229578;23;20005;-75
2022/06/03 14:34:51;;;;;;;1.10;0.93;;;27.60;57.30;;;;;;6232124;23;20027;-75